sensor_id;sensor_type;location;lat;lon;timestamp;pressure;altitude;pressure_sealevel;temperature;humidity
8653;BME280;4364;52.426;9.424;2023-01-16T00:01:38;99305.94;;;5.06;75.07
8653;BME280;4364;52.426;9.424;2023-01-16T00:04:05;99301.34;;;5.16;75.02
8653;BME280;4364;52.426;9.424;2023-01-16T00:06:32;99291.94;;;5.04;75.38
8653;BME280;4364;52.426;9.424;2023-01-16T00:09:00;99297.34;;;4.98;74.97
8653;BME280;4364;52.426;9.424;2023-01-16T00:11:27;99293.84;;;5.03;74.98
8653;BME280;4364;52.426;9.424;2023-01-16T00:13:53;99288.69;;;5.12;74.78
8653;BME280;4364;52.426;9.424;2023-01-16T00:16:20;99281.16;;;5.04;75.20
8653;BME280;4364;52.426;9.424;2023-01-16T00:18:47;99285.47;;;5.10;75.27
8653;BME280;4364;52.426;9.424;2023-01-16T00:21:15;99289.19;;;5.14;74.72
8653;BME280;4364;52.426;9.424;2023-01-16T00:23:41;99285.47;;;5.10;74.68
8653;BME280;4364;52.426;9.424;2023-01-16T00:26:08;99282.78;;;5.05;74.57
8653;BME280;4364;52.426;9.424;2023-01-16T00:28:35;99279.25;;;5.09;75.00
8653;BME280;4364;52.426;9.424;2023-01-16T00:31:04;99270.88;;;5.11;74.27
8653;BME280;4364;52.426;9.424;2023-01-16T00:33:32;99267.97;;;4.97;75.13
8653;BME280;4364;52.426;9.424;2023-01-16T00:36:00;99268.22;;;5.00;74.36
8653;BME280;4364;52.426;9.424;2023-01-16T00:38:27;99259.38;;;4.95;74.93
8653;BME280;4364;52.426;9.424;2023-01-16T00:40:53;99259.09;;;4.96;73.99
8653;BME280;4364;52.426;9.424;2023-01-16T00:43:20;99256.44;;;4.91;74.12
8653;BME280;4364;52.426;9.424;2023-01-16T00:45:46;99258.28;;;4.96;73.92
8653;BME280;4364;52.426;9.424;2023-01-16T00:48:13;99248.56;;;5.00;74.08
8653;BME280;4364;52.426;9.424;2023-01-16T00:50:40;99248.06;;;4.88;74.68
8653;BME280;4364;52.426;9.424;2023-01-16T00:53:06;99245.91;;;4.95;74.88
8653;BME280;4364;52.426;9.424;2023-01-16T00:55:34;99245.09;;;4.89;74.85
8653;BME280;4364;52.426;9.424;2023-01-16T00:58:02;99241.63;;;4.83;75.42
8653;BME280;4364;52.426;9.424;2023-01-16T01:00:30;99240.00;;;4.93;74.99
8653;BME280;4364;52.426;9.424;2023-01-16T01:02:57;99241.31;;;4.95;75.20
8653;BME280;4364;52.426;9.424;2023-01-16T01:05:23;99228.13;;;4.89;75.79
8653;BME280;4364;52.426;9.424;2023-01-16T01:07:50;99229.78;;;4.85;75.54
8653;BME280;4364;52.426;9.424;2023-01-16T01:10:17;99229.22;;;4.82;76.15
8653;BME280;4364;52.426;9.424;2023-01-16T01:12:43;99215.00;;;4.72;76.45
8653;BME280;4364;52.426;9.424;2023-01-16T01:15:10;99216.31;;;4.74;76.44
8653;BME280;4364;52.426;9.424;2023-01-16T01:17:37;99212.28;;;4.77;76.04
8653;BME280;4364;52.426;9.424;2023-01-16T01:20:04;99213.91;;;4.68;76.54
8653;BME280;4364;52.426;9.424;2023-01-16T01:22:31;99208.53;;;4.73;76.76
8653;BME280;4364;52.426;9.424;2023-01-16T01:24:58;99206.91;;;4.72;76.85
8653;BME280;4364;52.426;9.424;2023-01-16T01:27:24;99195.38;;;4.66;77.48
8653;BME280;4364;52.426;9.424;2023-01-16T01:29:51;99198.59;;;4.63;77.66
8653;BME280;4364;52.426;9.424;2023-01-16T01:32:17;99190.81;;;4.61;77.56
8653;BME280;4364;52.426;9.424;2023-01-16T01:34:43;99187.34;;;4.45;78.34
8653;BME280;4364;52.426;9.424;2023-01-16T01:37:10;99185.47;;;4.46;78.61
8653;BME280;4364;52.426;9.424;2023-01-16T01:39:36;99179.78;;;4.58;78.71
8653;BME280;4364;52.426;9.424;2023-01-16T01:42:03;99180.09;;;4.36;79.10
8653;BME280;4364;52.426;9.424;2023-01-16T01:44:50;99174.47;;;4.22;80.61
8653;BME280;4364;52.426;9.424;2023-01-16T01:47:19;99177.94;;;4.38;79.91
8653;BME280;4364;52.426;9.424;2023-01-16T01:49:48;99175.84;;;4.19;80.58
8653;BME280;4364;52.426;9.424;2023-01-16T01:52:15;99171.75;;;4.32;80.93
8653;BME280;4364;52.426;9.424;2023-01-16T01:54:46;99164.25;;;4.14;81.22
8653;BME280;4364;52.426;9.424;2023-01-16T01:57:21;99160.78;;;4.13;81.71
8653;BME280;4364;52.426;9.424;2023-01-16T01:59:56;99147.28;;;4.23;81.77
8653;BME280;4364;52.426;9.424;2023-01-16T02:02:26;99150.47;;;4.36;81.06
8653;BME280;4364;52.426;9.424;2023-01-16T02:04:56;99151.88;;;4.28;80.92
8653;BME280;4364;52.426;9.424;2023-01-16T02:07:24;99145.38;;;4.29;81.08
8653;BME280;4364;52.426;9.424;2023-01-16T02:09:56;99137.88;;;4.31;80.90
8653;BME280;4364;52.426;9.424;2023-01-16T02:12:28;99142.97;;;4.38;80.92
8653;BME280;4364;52.426;9.424;2023-01-16T02:14:55;99128.69;;;4.37;81.12
8653;BME280;4364;52.426;9.424;2023-01-16T02:17:23;99122.78;;;4.30;80.77
8653;BME280;4364;52.426;9.424;2023-01-16T02:33:45;99103.63;;;4.47;79.96
8653;BME280;4364;52.426;9.424;2023-01-16T02:36:52;99095.28;;;4.49;80.19
8653;BME280;4364;52.426;9.424;2023-01-16T02:47:55;99083.19;;;4.36;81.21
8653;BME280;4364;52.426;9.424;2023-01-16T02:53:29;99077.28;;;4.34;81.18
8653;BME280;4364;52.426;9.424;2023-01-16T02:56:03;99073.00;;;4.38;80.59
8653;BME280;4364;52.426;9.424;2023-01-16T02:58:45;99074.06;;;4.37;80.82
8653;BME280;4364;52.426;9.424;2023-01-16T03:01:12;99069.50;;;4.32;81.21
8653;BME280;4364;52.426;9.424;2023-01-16T03:03:49;99061.97;;;4.29;81.58
8653;BME280;4364;52.426;9.424;2023-01-16T03:08:56;99061.41;;;4.37;81.31
8653;BME280;4364;52.426;9.424;2023-01-16T03:11:29;99054.66;;;4.40;81.32
8653;BME280;4364;52.426;9.424;2023-01-16T03:14:16;99044.19;;;4.38;81.04
8653;BME280;4364;52.426;9.424;2023-01-16T03:16:59;99042.84;;;4.31;81.79
8653;BME280;4364;52.426;9.424;2023-01-16T03:19:49;99037.47;;;4.31;82.17
8653;BME280;4364;52.426;9.424;2023-01-16T03:22:39;99017.56;;;4.32;82.03
8653;BME280;4364;52.426;9.424;2023-01-16T03:30:55;98998.56;;;4.13;82.98
8653;BME280;4364;52.426;9.424;2023-01-16T03:33:33;98995.06;;;4.07;83.34
8653;BME280;4364;52.426;9.424;2023-01-16T03:37:04;98987.84;;;3.97;83.94
8653;BME280;4364;52.426;9.424;2023-01-16T03:39:28;98988.91;;;4.06;83.19
8653;BME280;4364;52.426;9.424;2023-01-16T03:42:01;98988.66;;;3.98;83.67
8653;BME280;4364;52.426;9.424;2023-01-16T03:44:35;98991.66;;;3.91;83.69
8653;BME280;4364;52.426;9.424;2023-01-16T03:47:05;98980.34;;;3.89;84.42
8653;BME280;4364;52.426;9.424;2023-01-16T03:49:39;98975.53;;;3.81;84.48
8653;BME280;4364;52.426;9.424;2023-01-16T03:52:10;98984.16;;;3.78;84.97
8653;BME280;4364;52.426;9.424;2023-01-16T03:57:39;98976.94;;;3.68;84.89
8653;BME280;4364;52.426;9.424;2023-01-16T04:00:11;98985.25;;;3.66;85.65
8653;BME280;4364;52.426;9.424;2023-01-16T04:02:54;98975.06;;;3.63;85.58
8653;BME280;4364;52.426;9.424;2023-01-16T04:05:28;98959.72;;;3.64;85.52
8653;BME280;4364;52.426;9.424;2023-01-16T04:08:00;98963.75;;;3.66;85.11
8653;BME280;4364;52.426;9.424;2023-01-16T04:10:31;98958.91;;;3.63;85.22
8653;BME280;4364;52.426;9.424;2023-01-16T04:13:05;98954.34;;;3.59;85.39
8653;BME280;4364;52.426;9.424;2023-01-16T04:15:35;98950.59;;;3.60;85.59
8653;BME280;4364;52.426;9.424;2023-01-16T04:18:03;98948.47;;;3.57;85.86
8653;BME280;4364;52.426;9.424;2023-01-16T04:20:30;98960.84;;;3.58;85.62
8653;BME280;4364;52.426;9.424;2023-01-16T04:22:58;98945.53;;;3.53;85.97
8653;BME280;4364;52.426;9.424;2023-01-16T04:25:25;98937.19;;;3.49;86.04
8653;BME280;4364;52.426;9.424;2023-01-16T04:27:51;98938.00;;;3.50;86.22
8653;BME280;4364;52.426;9.424;2023-01-16T04:30:18;98926.44;;;3.49;86.18
8653;BME280;4364;52.426;9.424;2023-01-16T04:32:44;98925.09;;;3.47;86.22
8653;BME280;4364;52.426;9.424;2023-01-16T04:35:11;98919.19;;;3.50;86.44
8653;BME280;4364;52.426;9.424;2023-01-16T04:37:37;98908.97;;;3.52;86.33
8653;BME280;4364;52.426;9.424;2023-01-16T04:40:04;98906.28;;;3.47;86.99
8653;BME280;4364;52.426;9.424;2023-01-16T04:42:31;98909.78;;;3.52;87.01
8653;BME280;4364;52.426;9.424;2023-01-16T04:44:58;98890.66;;;3.54;87.17
8653;BME280;4364;52.426;9.424;2023-01-16T04:47:24;98892.59;;;3.43;87.27
8653;BME280;4364;52.426;9.424;2023-01-16T04:49:51;98893.94;;;3.41;87.67
8653;BME280;4364;52.426;9.424;2023-01-16T04:52:17;98890.22;;;3.31;88.59
8653;BME280;4364;52.426;9.424;2023-01-16T04:54:44;98881.91;;;3.28;88.65
8653;BME280;4364;52.426;9.424;2023-01-16T04:57:10;98885.38;;;3.28;88.91
8653;BME280;4364;52.426;9.424;2023-01-16T04:59:36;98884.34;;;3.24;89.09
8653;BME280;4364;52.426;9.424;2023-01-16T05:02:03;98876.28;;;3.24;89.02
8653;BME280;4364;52.426;9.424;2023-01-16T05:04:30;98870.63;;;3.15;89.10
8653;BME280;4364;52.426;9.424;2023-01-16T05:06:56;98873.59;;;3.19;89.38
8653;BME280;4364;52.426;9.424;2023-01-16T05:09:23;98871.47;;;3.16;89.41
8653;BME280;4364;52.426;9.424;2023-01-16T05:11:49;98866.31;;;3.25;88.85
8653;BME280;4364;52.426;9.424;2023-01-16T05:14:15;98866.88;;;3.22;89.05
8653;BME280;4364;52.426;9.424;2023-01-16T05:16:42;98864.97;;;3.22;88.74
8653;BME280;4364;52.426;9.424;2023-01-16T05:19:09;98857.75;;;3.18;88.75
8653;BME280;4364;52.426;9.424;2023-01-16T05:21:36;98854.78;;;3.14;88.91
8653;BME280;4364;52.426;9.424;2023-01-16T05:24:03;98847.56;;;3.14;88.86
8653;BME280;4364;52.426;9.424;2023-01-16T05:26:31;98846.47;;;3.15;88.62
8653;BME280;4364;52.426;9.424;2023-01-16T05:28:57;98842.47;;;3.08;89.34
8653;BME280;4364;52.426;9.424;2023-01-16T05:31:25;98831.47;;;3.09;89.32
8653;BME280;4364;52.426;9.424;2023-01-16T05:33:51;98830.63;;;3.09;89.05
8653;BME280;4364;52.426;9.424;2023-01-16T05:36:18;98833.06;;;3.10;88.73
8653;BME280;4364;52.426;9.424;2023-01-16T05:38:44;98826.06;;;3.14;89.12
8653;BME280;4364;52.426;9.424;2023-01-16T05:41:12;98827.41;;;3.12;88.59
8653;BME280;4364;52.426;9.424;2023-01-16T05:43:39;98807.00;;;3.16;88.45
8653;BME280;4364;52.426;9.424;2023-01-16T05:46:06;98809.69;;;3.16;88.71
8653;BME280;4364;52.426;9.424;2023-01-16T05:48:32;98801.38;;;3.12;89.07
8653;BME280;4364;52.426;9.424;2023-01-16T05:51:03;98806.75;;;3.07;88.74
8653;BME280;4364;52.426;9.424;2023-01-16T05:53:29;98797.09;;;3.06;89.13
8653;BME280;4364;52.426;9.424;2023-01-16T05:55:58;98787.97;;;3.02;89.07
8653;BME280;4364;52.426;9.424;2023-01-16T05:58:26;98794.41;;;3.06;89.21
8653;BME280;4364;52.426;9.424;2023-01-16T06:00:52;98783.66;;;3.06;88.91
8653;BME280;4364;52.426;9.424;2023-01-16T06:03:19;98779.09;;;3.07;89.17
8653;BME280;4364;52.426;9.424;2023-01-16T06:05:47;98776.91;;;3.14;89.54
8653;BME280;4364;52.426;9.424;2023-01-16T06:08:13;98771.84;;;3.12;88.96
8653;BME280;4364;52.426;9.424;2023-01-16T06:10:40;98772.09;;;3.16;89.11
8653;BME280;4364;52.426;9.424;2023-01-16T06:13:06;98764.28;;;3.20;89.39
8653;BME280;4364;52.426;9.424;2023-01-16T06:15:32;98760.78;;;3.19;88.98
8653;BME280;4364;52.426;9.424;2023-01-16T06:17:59;98753.00;;;3.18;88.96
8653;BME280;4364;52.426;9.424;2023-01-16T06:20:26;98756.97;;;3.30;88.78
8653;BME280;4364;52.426;9.424;2023-01-16T06:22:52;98755.88;;;3.31;88.80
8653;BME280;4364;52.426;9.424;2023-01-16T06:25:19;98748.63;;;3.32;88.82
8653;BME280;4364;52.426;9.424;2023-01-16T06:27:51;98748.09;;;3.30;89.42
8653;BME280;4364;52.426;9.424;2023-01-16T06:30:18;98742.16;;;3.38;89.06
8653;BME280;4364;52.426;9.424;2023-01-16T06:32:48;98733.53;;;3.41;89.10
8653;BME280;4364;52.426;9.424;2023-01-16T06:35:16;98736.75;;;3.43;88.95
8653;BME280;4364;52.426;9.424;2023-01-16T06:37:43;98729.47;;;3.44;89.50
8653;BME280;4364;52.426;9.424;2023-01-16T06:40:09;98719.53;;;3.49;88.90
8653;BME280;4364;52.426;9.424;2023-01-16T06:42:37;98714.38;;;3.53;89.04
8653;BME280;4364;52.426;9.424;2023-01-16T06:45:04;98707.38;;;3.57;88.81
8653;BME280;4364;52.426;9.424;2023-01-16T06:47:31;98700.88;;;3.63;88.64
8653;BME280;4364;52.426;9.424;2023-01-16T06:49:57;98700.88;;;3.63;88.61
8653;BME280;4364;52.426;9.424;2023-01-16T06:52:24;98702.22;;;3.61;88.30
8653;BME280;4364;52.426;9.424;2023-01-16T06:54:51;98701.72;;;3.59;88.20
8653;BME280;4364;52.426;9.424;2023-01-16T06:57:17;98697.94;;;3.60;88.52
8653;BME280;4364;52.426;9.424;2023-01-16T06:59:43;98689.06;;;3.64;88.27
8653;BME280;4364;52.426;9.424;2023-01-16T07:02:10;98689.88;;;3.60;88.63
8653;BME280;4364;52.426;9.424;2023-01-16T07:04:36;98690.97;;;3.59;88.42
8653;BME280;4364;52.426;9.424;2023-01-16T07:07:03;98686.97;;;3.56;88.44
8653;BME280;4364;52.426;9.424;2023-01-16T07:09:30;98690.22;;;3.53;88.82
8653;BME280;4364;52.426;9.424;2023-01-16T07:11:56;98687.97;;;3.65;88.85
8653;BME280;4364;52.426;9.424;2023-01-16T07:14:23;98681.22;;;3.68;88.75
8653;BME280;4364;52.426;9.424;2023-01-16T07:17:10;98677.47;;;3.64;88.86
8653;BME280;4364;52.426;9.424;2023-01-16T07:19:56;98667.59;;;3.59;88.74
8653;BME280;4364;52.426;9.424;2023-01-16T07:22:41;98663.84;;;3.55;88.85
8653;BME280;4364;52.426;9.424;2023-01-16T07:25:16;98654.16;;;3.54;88.26
8653;BME280;4364;52.426;9.424;2023-01-16T07:27:49;98653.75;;;3.76;87.90
8653;BME280;4364;52.426;9.424;2023-01-16T07:30:17;98660.38;;;3.55;88.14
8653;BME280;4364;52.426;9.424;2023-01-16T07:32:45;98651.53;;;3.49;88.55
8653;BME280;4364;52.426;9.424;2023-01-16T07:35:12;98650.97;;;3.52;88.67
8653;BME280;4364;52.426;9.424;2023-01-16T07:37:39;98642.94;;;3.47;88.46
8653;BME280;4364;52.426;9.424;2023-01-16T07:40:06;98639.47;;;3.46;88.43
8653;BME280;4364;52.426;9.424;2023-01-16T07:42:33;98634.88;;;3.47;88.49
8653;BME280;4364;52.426;9.424;2023-01-16T07:45:00;98638.13;;;3.44;88.71
8653;BME280;4364;52.426;9.424;2023-01-16T07:47:27;98638.69;;;3.41;88.79
8653;BME280;4364;52.426;9.424;2023-01-16T07:49:53;98633.53;;;3.49;88.98
8653;BME280;4364;52.426;9.424;2023-01-16T07:53:11;98620.66;;;3.46;88.40
8653;BME280;4364;52.426;9.424;2023-01-16T07:56:52;98621.56;;;3.31;89.18
8653;BME280;4364;52.426;9.424;2023-01-16T08:00:33;98603.47;;;3.08;90.54
8653;BME280;4364;52.426;9.424;2023-01-16T08:04:14;98597.78;;;3.14;90.87
8653;BME280;4364;52.426;9.424;2023-01-16T08:07:55;98597.56;;;3.06;91.17
8653;BME280;4364;52.426;9.424;2023-01-16T08:11:37;98588.66;;;3.10;91.27
8653;BME280;4364;52.426;9.424;2023-01-16T08:15:18;98583.56;;;3.09;91.81
8653;BME280;4364;52.426;9.424;2023-01-16T08:19:00;98570.69;;;3.11;91.49
8653;BME280;4364;52.426;9.424;2023-01-16T08:22:43;98567.69;;;3.18;91.70
8653;BME280;4364;52.426;9.424;2023-01-16T08:26:23;98553.34;;;3.27;91.49
8653;BME280;4364;52.426;9.424;2023-01-16T08:30:06;98546.06;;;3.33;91.40
8653;BME280;4364;52.426;9.424;2023-01-16T08:33:48;98540.28;;;3.50;91.20
8653;BME280;4364;52.426;9.424;2023-01-16T08:37:31;98543.97;;;3.54;90.80
8653;BME280;4364;52.426;9.424;2023-01-16T08:41:12;98537.44;;;3.65;90.21
8653;BME280;4364;52.426;9.424;2023-01-16T08:44:53;98530.41;;;3.69;89.99
8653;BME280;4364;52.426;9.424;2023-01-16T11:31:48;98106.75;;;5.21;76.78
8653;BME280;4364;52.426;9.424;2023-01-16T11:34:21;98106.16;;;5.24;76.83
8653;BME280;4364;52.426;9.424;2023-01-16T11:36:54;98104.41;;;5.19;76.13
8653;BME280;4364;52.426;9.424;2023-01-16T11:39:27;98087.94;;;5.07;76.44
8653;BME280;4364;52.426;9.424;2023-01-16T11:41:57;98089.31;;;5.18;76.20
8653;BME280;4364;52.426;9.424;2023-01-16T11:44:30;98079.03;;;5.20;76.12
8653;BME280;4364;52.426;9.424;2023-01-16T11:47:22;98059.63;;;5.10;76.25
8653;BME280;4364;52.426;9.424;2023-01-16T11:49:51;98059.97;;;5.17;75.52
8653;BME280;4364;52.426;9.424;2023-01-16T11:52:22;98050.94;;;5.13;75.55
8653;BME280;4364;52.426;9.424;2023-01-16T11:54:58;98045.66;;;5.30;74.84
8653;BME280;4364;52.426;9.424;2023-01-16T12:00:58;98034.88;;;5.30;74.71
8653;BME280;4364;52.426;9.424;2023-01-16T12:03:58;98016.69;;;5.36;74.01
8653;BME280;4364;52.426;9.424;2023-01-16T12:09:59;98000.94;;;5.52;73.16
8653;BME280;4364;52.426;9.424;2023-01-16T12:12:34;98009.50;;;5.54;72.93
8653;BME280;4364;52.426;9.424;2023-01-16T12:18:34;97987.34;;;5.66;71.59
8653;BME280;4364;52.426;9.424;2023-01-16T12:26:05;97965.03;;;5.74;71.34
8653;BME280;4364;52.426;9.424;2023-01-16T12:42:43;97922.16;;;6.04;69.76
8653;BME280;4364;52.426;9.424;2023-01-16T12:45:54;97919.16;;;6.14;69.96
8653;BME280;4364;52.426;9.424;2023-01-16T12:48:50;97921.38;;;6.12;69.43
8653;BME280;4364;52.426;9.424;2023-01-16T12:51:32;97915.16;;;6.03;69.67
8653;BME280;4364;52.426;9.424;2023-01-16T12:54:22;97903.25;;;6.04;69.87
8653;BME280;4364;52.426;9.424;2023-01-16T12:59:39;97893.91;;;6.10;69.38
8653;BME280;4364;52.426;9.424;2023-01-16T13:02:32;97884.69;;;6.11;69.97
8653;BME280;4364;52.426;9.424;2023-01-16T13:05:17;97880.75;;;6.08;69.71
8653;BME280;4364;52.426;9.424;2023-01-16T13:07:53;97872.50;;;6.05;70.23
8653;BME280;4364;52.426;9.424;2023-01-16T13:10:30;97867.09;;;6.05;70.78
8653;BME280;4364;52.426;9.424;2023-01-16T13:13:21;97870.56;;;5.97;71.25
8653;BME280;4364;52.426;9.424;2023-01-16T13:16:17;97871.69;;;6.04;70.26
8653;BME280;4364;52.426;9.424;2023-01-16T13:19:11;97865.34;;;6.09;70.90
8653;BME280;4364;52.426;9.424;2023-01-16T13:22:00;97861.50;;;6.01;71.70
8653;BME280;4364;52.426;9.424;2023-01-16T13:24:57;97858.00;;;5.92;71.99
8653;BME280;4364;52.426;9.424;2023-01-16T13:27:38;97863.22;;;5.88;72.03
8653;BME280;4364;52.426;9.424;2023-01-16T13:30:19;97857.84;;;5.88;71.42
8653;BME280;4364;52.426;9.424;2023-01-16T13:32:55;97864.47;;;5.82;71.86
8653;BME280;4364;52.426;9.424;2023-01-16T13:41:13;97862.72;;;5.78;73.45
8653;BME280;4364;52.426;9.424;2023-01-16T13:43:58;97860.00;;;5.69;75.20
8653;BME280;4364;52.426;9.424;2023-01-16T13:46:45;97857.75;;;5.53;76.28
8653;BME280;4364;52.426;9.424;2023-01-16T13:49:19;97855.06;;;5.53;76.98
8653;BME280;4364;52.426;9.424;2023-01-16T13:51:49;97847.91;;;5.57;77.26
8653;BME280;4364;52.426;9.424;2023-01-16T13:54:26;97840.75;;;5.44;77.97
8653;BME280;4364;52.426;9.424;2023-01-16T13:57:01;97837.09;;;5.31;79.21
8653;BME280;4364;52.426;9.424;2023-01-16T13:59:43;97841.19;;;5.29;79.13
8653;BME280;4364;52.426;9.424;2023-01-16T14:11:04;97813.81;;;5.04;79.98
8653;BME280;4364;52.426;9.424;2023-01-16T14:13:36;97801.50;;;5.12;79.45
8653;BME280;4364;52.426;9.424;2023-01-16T14:19:00;97803.59;;;5.15;78.54
8653;BME280;4364;52.426;9.424;2023-01-16T14:24:05;97797.72;;;5.13;78.24
8653;BME280;4364;52.426;9.424;2023-01-16T14:26:57;97790.25;;;5.10;78.08
8653;BME280;4364;52.426;9.424;2023-01-16T14:29:32;97788.97;;;5.07;78.26
8653;BME280;4364;52.426;9.424;2023-01-16T14:34:37;97779.69;;;5.31;77.47
8653;BME280;4364;52.426;9.424;2023-01-16T14:37:15;97775.06;;;5.23;77.76
8653;BME280;4364;52.426;9.424;2023-01-16T14:39:50;97760.97;;;5.17;78.25
8653;BME280;4364;52.426;9.424;2023-01-16T14:45:23;97747.81;;;5.24;77.81
8653;BME280;4364;52.426;9.424;2023-01-16T14:48:37;97751.25;;;5.07;77.71
8653;BME280;4364;52.426;9.424;2023-01-16T14:54:27;97755.19;;;5.01;78.08
8653;BME280;4364;52.426;9.424;2023-01-16T14:57:18;97764.72;;;4.98;78.36
8653;BME280;4364;52.426;9.424;2023-01-16T14:59:52;97750.59;;;4.93;78.47
8653;BME280;4364;52.426;9.424;2023-01-16T15:02:27;97748.72;;;5.02;78.53
8653;BME280;4364;52.426;9.424;2023-01-16T15:07:48;97725.91;;;4.99;77.83
8653;BME280;4364;52.426;9.424;2023-01-16T15:10:35;97732.19;;;4.86;78.91
8653;BME280;4364;52.426;9.424;2023-01-16T15:13:29;97713.66;;;4.85;78.00
8653;BME280;4364;52.426;9.424;2023-01-16T15:16:21;97718.75;;;4.86;78.20
8653;BME280;4364;52.426;9.424;2023-01-16T15:19:20;97712.19;;;4.70;78.50
8653;BME280;4364;52.426;9.424;2023-01-16T15:22:39;97709.06;;;4.85;78.26
8653;BME280;4364;52.426;9.424;2023-01-16T15:28:22;97703.81;;;4.71;79.03
8653;BME280;4364;52.426;9.424;2023-01-16T15:30:51;97709.78;;;4.68;79.71
8653;BME280;4364;52.426;9.424;2023-01-16T15:33:31;97703.75;;;4.62;80.57
8653;BME280;4364;52.426;9.424;2023-01-16T15:36:35;97683.19;;;4.67;79.97
8653;BME280;4364;52.426;9.424;2023-01-16T15:39:25;97703.09;;;4.57;80.49
8653;BME280;4364;52.426;9.424;2023-01-16T15:42:14;97685.66;;;4.54;80.28
8653;BME280;4364;52.426;9.424;2023-01-16T15:45:12;97691.31;;;4.44;80.75
8653;BME280;4364;52.426;9.424;2023-01-16T15:48:08;97681.69;;;4.43;80.60
8653;BME280;4364;52.426;9.424;2023-01-16T15:50:55;97678.75;;;4.31;80.91
8653;BME280;4364;52.426;9.424;2023-01-16T15:53:24;97677.81;;;4.26;81.56
8653;BME280;4364;52.426;9.424;2023-01-16T15:55:57;97667.16;;;4.21;81.36
8653;BME280;4364;52.426;9.424;2023-01-16T15:58:26;97658.50;;;4.24;81.53
8653;BME280;4364;52.426;9.424;2023-01-16T16:01:01;97662.28;;;4.23;81.77
8653;BME280;4364;52.426;9.424;2023-01-16T16:03:44;97650.88;;;4.18;81.78
8653;BME280;4364;52.426;9.424;2023-01-16T16:06:14;97660.88;;;4.26;81.82
8653;BME280;4364;52.426;9.424;2023-01-16T16:08:45;97649.59;;;4.24;81.58
8653;BME280;4364;52.426;9.424;2023-01-16T16:11:17;97650.91;;;4.26;81.38
8653;BME280;4364;52.426;9.424;2023-01-16T16:14:03;97643.56;;;4.18;81.33
8653;BME280;4364;52.426;9.424;2023-01-16T16:17:00;97632.78;;;4.10;82.09
8653;BME280;4364;52.426;9.424;2023-01-16T16:19:45;97613.81;;;4.15;81.01
8653;BME280;4364;52.426;9.424;2023-01-16T16:22:17;97615.50;;;4.02;82.68
8653;BME280;4364;52.426;9.424;2023-01-16T16:25:15;97611.66;;;3.94;82.04
8653;BME280;4364;52.426;9.424;2023-01-16T16:27:43;97602.06;;;4.02;82.05
8653;BME280;4364;52.426;9.424;2023-01-16T16:30:19;97606.16;;;3.99;81.81
8653;BME280;4364;52.426;9.424;2023-01-16T16:32:48;97603.59;;;3.94;82.14
8653;BME280;4364;52.426;9.424;2023-01-16T16:35:33;97594.25;;;3.92;82.29
8653;BME280;4364;52.426;9.424;2023-01-16T16:38:01;97588.00;;;4.05;81.90
8653;BME280;4364;52.426;9.424;2023-01-16T16:40:28;97579.72;;;3.93;81.87
8653;BME280;4364;52.426;9.424;2023-01-16T16:42:58;97583.69;;;3.95;82.02
8653;BME280;4364;52.426;9.424;2023-01-16T16:45:30;97575.09;;;3.84;82.52
8653;BME280;4364;52.426;9.424;2023-01-16T16:48:20;97569.06;;;3.87;82.16
8653;BME280;4364;52.426;9.424;2023-01-16T16:50:49;97562.13;;;3.86;82.16
8653;BME280;4364;52.426;9.424;2023-01-16T16:53:27;97562.88;;;3.78;82.10
8653;BME280;4364;52.426;9.424;2023-01-16T16:56:08;97553.06;;;3.74;82.38
8653;BME280;4364;52.426;9.424;2023-01-16T16:58:43;97547.97;;;3.72;82.17
8653;BME280;4364;52.426;9.424;2023-01-16T17:01:12;97539.78;;;3.77;81.63
8653;BME280;4364;52.426;9.424;2023-01-16T17:03:40;97541.22;;;3.75;81.38
8653;BME280;4364;52.426;9.424;2023-01-16T17:06:14;97539.16;;;3.80;81.02
8653;BME280;4364;52.426;9.424;2023-01-16T17:08:41;97534.41;;;3.77;81.40
8653;BME280;4364;52.426;9.424;2023-01-16T17:11:11;97524.28;;;3.74;80.91
8653;BME280;4364;52.426;9.424;2023-01-16T17:13:38;97515.09;;;3.66;81.01
8653;BME280;4364;52.426;9.424;2023-01-16T17:16:05;97520.19;;;3.77;80.34
8653;BME280;4364;52.426;9.424;2023-01-16T17:18:39;97503.91;;;3.82;80.34
8653;BME280;4364;52.426;9.424;2023-01-16T17:21:05;97506.09;;;3.71;79.96
8653;BME280;4364;52.426;9.424;2023-01-16T17:23:32;97507.38;;;3.74;80.13
8653;BME280;4364;52.426;9.424;2023-01-16T17:25:58;97492.84;;;3.75;79.70
8653;BME280;4364;52.426;9.424;2023-01-16T17:28:26;97495.81;;;3.73;79.56
8653;BME280;4364;52.426;9.424;2023-01-16T17:30:52;97489.53;;;3.78;79.67
8653;BME280;4364;52.426;9.424;2023-01-16T17:33:20;97485.69;;;3.70;79.54
8653;BME280;4364;52.426;9.424;2023-01-16T17:35:49;97481.91;;;3.71;79.08
8653;BME280;4364;52.426;9.424;2023-01-16T17:38:35;97478.47;;;3.79;79.17
8653;BME280;4364;52.426;9.424;2023-01-16T17:41:03;97469.91;;;3.77;78.72
8653;BME280;4364;52.426;9.424;2023-01-16T17:43:30;97467.97;;;3.69;79.33
8653;BME280;4364;52.426;9.424;2023-01-16T17:46:18;97461.03;;;3.68;79.14
8653;BME280;4364;52.426;9.424;2023-01-16T17:48:49;97468.66;;;3.75;78.65
8653;BME280;4364;52.426;9.424;2023-01-16T17:51:16;97466.44;;;3.77;78.61
8653;BME280;4364;52.426;9.424;2023-01-16T17:53:48;97451.72;;;3.74;78.96
8653;BME280;4364;52.426;9.424;2023-01-16T17:56:15;97460.28;;;3.76;78.31
8653;BME280;4364;52.426;9.424;2023-01-16T17:58:42;97451.53;;;3.70;78.37
8653;BME280;4364;52.426;9.424;2023-01-16T18:01:24;97453.47;;;3.79;78.08
8653;BME280;4364;52.426;9.424;2023-01-16T18:03:52;97454.59;;;3.78;78.23
8653;BME280;4364;52.426;9.424;2023-01-16T18:06:28;97444.16;;;3.85;77.75
8653;BME280;4364;52.426;9.424;2023-01-16T18:08:56;97441.47;;;3.76;78.00
8653;BME280;4364;52.426;9.424;2023-01-16T18:11:24;97443.84;;;3.86;77.65
8653;BME280;4364;52.426;9.424;2023-01-16T18:14:11;97435.81;;;3.95;76.87
8653;BME280;4364;52.426;9.424;2023-01-16T18:16:57;97429.63;;;3.86;77.20
8653;BME280;4364;52.426;9.424;2023-01-16T18:19:42;97433.09;;;3.86;77.63
8653;BME280;4364;52.426;9.424;2023-01-16T18:22:09;97433.28;;;3.90;77.04
8653;BME280;4364;52.426;9.424;2023-01-16T18:24:37;97425.84;;;3.96;77.21
8653;BME280;4364;52.426;9.424;2023-01-16T18:27:06;97422.34;;;3.86;77.52
8653;BME280;4364;52.426;9.424;2023-01-16T18:29:34;97432.03;;;3.96;76.77
8653;BME280;4364;52.426;9.424;2023-01-16T18:32:01;97433.13;;;3.95;77.10
8653;BME280;4364;52.426;9.424;2023-01-16T18:34:47;97417.31;;;4.02;77.01
8653;BME280;4364;52.426;9.424;2023-01-16T18:37:40;97411.47;;;4.00;76.94
8653;BME280;4364;52.426;9.424;2023-01-16T18:40:11;97418.44;;;4.01;77.07
8653;BME280;4364;52.426;9.424;2023-01-16T18:42:58;97423.00;;;3.92;77.23
8653;BME280;4364;52.426;9.424;2023-01-16T18:45:44;97409.25;;;3.94;77.26
8653;BME280;4364;52.426;9.424;2023-01-16T18:48:29;97405.31;;;4.00;77.41
8653;BME280;4364;52.426;9.424;2023-01-16T18:51:16;97410.22;;;3.98;77.37